createdAt,value
2022-12-01T00:01:20.220Z,22.20
2022-12-01T00:03:48.083Z,20.23
2022-12-01T00:06:18.762Z,21.27
2022-12-01T00:09:03.299Z,20.92
2022-12-01T00:11:31.375Z,20.25
2022-12-01T00:14:00.761Z,20.08
2022-12-01T00:16:28.723Z,20.92
2022-12-01T00:18:57.067Z,20.15
2022-12-01T00:21:26.672Z,19.17
2022-12-01T00:23:56.806Z,18.55
2022-12-01T00:26:25.785Z,18.58
2022-12-01T00:28:55.266Z,18.13
2022-12-01T00:31:25.039Z,20.20
2022-12-01T00:33:52.938Z,18.52
2022-12-01T00:36:20.922Z,18.95
2022-12-01T00:38:49.068Z,17.73
2022-12-01T00:41:17.441Z,19.75
2022-12-01T00:43:45.309Z,20.02
2022-12-01T00:46:13.354Z,20.67
2022-12-01T00:48:42.592Z,21.08
2022-12-01T00:51:10.614Z,22.10
2022-12-01T00:53:38.520Z,20.95
2022-12-01T00:56:06.523Z,21.25
2022-12-01T00:58:34.661Z,20.23
2022-12-01T01:01:03.453Z,20.02
2022-12-01T01:03:33.195Z,22.48
2022-12-01T01:06:07.592Z,19.58
2022-12-01T01:08:35.718Z,21.55
2022-12-01T01:11:04.147Z,20.05
2022-12-01T01:13:32.489Z,21.35
2022-12-01T01:16:01.921Z,20.65
2022-12-01T01:18:30.050Z,22.10
2022-12-01T01:20:58.591Z,20.77
2022-12-01T01:23:28.126Z,23.02
2022-12-01T01:26:01.465Z,22.55
2022-12-01T01:28:29.431Z,22.30
2022-12-01T01:30:57.351Z,22.73
2022-12-01T01:33:25.326Z,21.45
2022-12-01T01:35:53.318Z,20.92
2022-12-01T01:38:21.155Z,22.30
2022-12-01T01:40:50.355Z,21.73
2022-12-01T01:43:38.770Z,21.58
2022-12-01T01:46:07.345Z,21.90
2022-12-01T01:48:37.097Z,21.58
2022-12-01T01:51:06.238Z,22.55
2022-12-01T01:53:34.733Z,22.48
2022-12-01T01:56:05.547Z,21.65
2022-12-01T01:58:34.880Z,20.95
2022-12-01T02:01:03.054Z,22.20
2022-12-01T02:03:31.418Z,20.27
2022-12-01T02:06:04.672Z,22.15
2022-12-01T02:08:35.901Z,21.65
2022-12-01T02:11:48.645Z,21.52
2022-12-01T02:14:28.995Z,23.05
2022-12-01T02:17:02.653Z,22.23
2022-12-01T02:19:46.107Z,23.38
2022-12-01T02:22:23.294Z,22.13
2022-12-01T02:25:26.827Z,21.33
2022-12-01T02:28:21.510Z,21.70
2022-12-01T02:33:26.793Z,21.90
2022-12-01T02:36:02.433Z,23.25
2022-12-01T02:38:34.909Z,21.55
2022-12-01T02:41:10.394Z,22.30
2022-12-01T02:43:45.362Z,22.98
2022-12-01T02:46:19.237Z,22.70
2022-12-01T02:48:50.472Z,22.58
2022-12-01T02:51:23.024Z,22.20
2022-12-01T02:53:51.569Z,23.92
2022-12-01T02:56:22.718Z,21.70
2022-12-01T02:58:50.995Z,22.60
2022-12-01T03:01:33.748Z,22.65
2022-12-01T03:04:12.502Z,22.10
2022-12-01T03:06:51.593Z,23.13
2022-12-01T03:09:28.234Z,21.63
2022-12-01T03:12:06.550Z,22.20
2022-12-01T03:14:41.063Z,22.08
2022-12-01T03:17:16.230Z,23.00
2022-12-01T03:19:48.901Z,22.02
2022-12-01T03:22:24.787Z,21.95
2022-12-01T03:24:56.695Z,22.58
2022-12-01T03:27:29.232Z,23.05
2022-12-01T03:30:00.874Z,22.35
2022-12-01T03:32:38.256Z,23.17
2022-12-01T03:35:10.889Z,23.00
2022-12-01T03:37:42.956Z,21.27
2022-12-01T03:40:17.755Z,21.92
2022-12-01T03:42:49.158Z,22.65
2022-12-01T03:45:24.458Z,22.73
2022-12-01T03:47:54.272Z,22.33
2022-12-01T03:50:22.707Z,23.58
2022-12-01T03:52:59.013Z,23.70
2022-12-01T03:55:29.953Z,23.20
2022-12-01T03:58:03.003Z,23.00
2022-12-01T04:00:32.218Z,23.33
2022-12-01T04:03:03.908Z,22.73
2022-12-01T04:05:32.588Z,23.02
2022-12-01T04:08:00.615Z,22.58
2022-12-01T04:10:28.771Z,22.20
2022-12-01T04:12:59.556Z,23.58
2022-12-01T04:15:28.715Z,23.02
2022-12-01T04:17:56.578Z,22.98
2022-12-01T04:20:25.848Z,23.40
2022-12-01T04:22:53.714Z,22.98
2022-12-01T04:25:21.633Z,24.50
2022-12-01T04:27:50.055Z,22.92
2022-12-01T04:30:18.374Z,24.00
2022-12-01T04:32:46.265Z,22.27
2022-12-01T04:35:14.422Z,24.45
2022-12-01T04:37:43.648Z,23.08
2022-12-01T04:40:12.574Z,23.23
2022-12-01T04:42:40.469Z,22.23
2022-12-01T04:45:09.589Z,22.05
2022-12-01T04:47:37.459Z,24.05
2022-12-01T04:50:06.451Z,24.35
2022-12-01T04:52:38.042Z,23.83
2022-12-01T04:55:08.494Z,23.15
2022-12-01T04:57:36.410Z,22.50
2022-12-01T05:00:13.069Z,24.45
2022-12-01T05:02:43.217Z,24.52
2022-12-01T05:05:11.827Z,24.35
2022-12-01T05:07:39.732Z,25.65
2022-12-01T05:10:10.082Z,24.67
2022-12-01T05:12:37.999Z,22.75
2022-12-01T05:15:06.671Z,22.95
2022-12-01T05:17:37.112Z,24.08
2022-12-01T05:20:29.340Z,24.80
2022-12-01T05:23:08.246Z,24.45
2022-12-01T05:25:40.141Z,24.85
2022-12-01T05:28:08.156Z,24.25
2022-12-01T05:30:36.016Z,22.95
2022-12-01T05:33:04.055Z,23.25
2022-12-01T05:35:33.657Z,22.20
2022-12-01T05:38:07.338Z,23.10
2022-12-01T05:40:36.192Z,22.75
2022-12-01T05:43:05.876Z,24.02
2022-12-01T05:45:34.695Z,22.52
2022-12-01T05:48:03.429Z,24.42
2022-12-01T05:50:31.903Z,23.33
2022-12-01T05:52:59.751Z,24.42
2022-12-01T05:55:27.626Z,24.55
2022-12-01T05:57:55.492Z,22.42
2022-12-01T06:00:25.117Z,25.65
2022-12-01T06:02:52.987Z,25.05
2022-12-01T06:05:20.988Z,25.17
2022-12-01T06:07:48.934Z,23.75
2022-12-01T06:10:16.881Z,24.83
2022-12-01T06:12:44.931Z,25.70
2022-12-01T06:15:14.114Z,24.20
2022-12-01T06:17:43.345Z,24.88
2022-12-01T06:20:12.853Z,24.63
2022-12-01T06:22:40.965Z,25.88
2022-12-01T06:25:09.916Z,24.27
2022-12-01T06:27:37.859Z,24.70
2022-12-01T06:30:07.359Z,24.30
2022-12-01T06:32:35.388Z,24.60
2022-12-01T06:35:04.831Z,22.83
2022-12-01T06:37:32.694Z,24.80
2022-12-01T06:40:00.593Z,23.85
2022-12-01T06:42:30.611Z,23.08
2022-12-01T06:44:58.514Z,24.75
2022-12-01T06:47:26.425Z,24.70
2022-12-01T06:49:54.342Z,24.98
2022-12-01T06:52:23.564Z,25.83
2022-12-01T06:54:51.461Z,23.83
2022-12-01T06:57:19.873Z,24.63
2022-12-01T06:59:48.502Z,23.05
2022-12-01T07:02:18.270Z,24.65
2022-12-01T07:04:46.231Z,23.80
2022-12-01T07:07:14.437Z,23.05
2022-12-01T07:09:43.910Z,24.25
2022-12-01T07:12:11.772Z,23.75
2022-12-01T07:14:40.028Z,22.85
2022-12-01T07:17:07.910Z,23.13
2022-12-01T07:19:35.816Z,24.90
2022-12-01T07:22:03.784Z,25.00
2022-12-01T07:24:31.849Z,23.83
2022-12-01T07:27:01.055Z,25.30
2022-12-01T07:29:28.958Z,23.33
2022-12-01T07:31:56.844Z,24.73
2022-12-01T07:34:24.840Z,23.98
2022-12-01T07:36:52.811Z,24.40
2022-12-01T07:39:20.812Z,24.40
2022-12-01T07:41:48.851Z,24.85
2022-12-01T07:44:18.150Z,25.75
2022-12-01T07:46:46.042Z,25.63
2022-12-01T07:49:15.568Z,24.30
2022-12-01T07:51:43.520Z,24.67
2022-12-01T07:54:14.213Z,25.17
2022-12-01T07:56:42.346Z,25.40
2022-12-01T07:59:10.448Z,25.52
2022-12-01T08:01:44.290Z,24.55
2022-12-01T08:04:13.158Z,28.08
2022-12-01T08:06:41.031Z,24.95
2022-12-01T08:09:09.087Z,25.25
2022-12-01T08:11:37.049Z,26.15
2022-12-01T08:14:04.968Z,24.65
2022-12-01T08:16:33.035Z,27.27
2022-12-01T08:19:02.930Z,25.15
2022-12-01T08:21:30.921Z,26.33
2022-12-01T08:23:59.604Z,24.17
2022-12-01T08:26:28.351Z,26.98
2022-12-01T08:28:56.467Z,23.90
2022-12-01T08:31:26.716Z,25.50
2022-12-01T08:33:55.248Z,25.00
2022-12-01T08:36:25.166Z,24.63
2022-12-01T08:38:55.214Z,25.17
2022-12-01T08:41:24.219Z,26.58
2022-12-01T08:44:00.346Z,25.33
2022-12-01T08:46:30.039Z,26.60
2022-12-01T08:48:58.300Z,24.52
2022-12-01T08:51:28.195Z,26.75
2022-12-01T08:53:57.537Z,26.40
2022-12-01T08:56:27.750Z,27.73
2022-12-01T08:58:56.498Z,25.88
2022-12-01T09:01:25.744Z,27.35
2022-12-01T09:04:05.938Z,25.45
2022-12-01T09:06:39.481Z,25.95
2022-12-01T09:09:07.599Z,26.40
2022-12-01T09:11:35.469Z,27.38
2022-12-01T09:14:03.337Z,26.45
2022-12-01T09:16:31.347Z,27.10
2022-12-01T09:18:59.314Z,26.55
2022-12-01T09:21:30.698Z,27.25
2022-12-01T09:24:00.443Z,27.02
2022-12-01T09:26:29.094Z,27.08
2022-12-01T09:29:10.019Z,26.73
2022-12-01T09:31:38.691Z,26.85
2022-12-01T09:34:08.516Z,29.13
2022-12-01T09:36:37.852Z,26.73
2022-12-01T09:39:09.090Z,28.13
2022-12-01T09:41:41.539Z,27.85
2022-12-01T09:44:20.681Z,25.88
2022-12-01T09:46:52.262Z,28.98
2022-12-01T09:49:23.947Z,29.58
2022-12-01T09:51:53.744Z,27.50
2022-12-01T09:54:23.099Z,27.10
2022-12-01T09:56:55.406Z,27.20
2022-12-01T09:59:26.056Z,27.55
2022-12-01T10:01:59.439Z,28.27
2022-12-01T10:04:37.187Z,28.98
2022-12-01T10:07:10.424Z,29.17
2022-12-01T10:09:47.613Z,30.05
2022-12-01T10:12:18.250Z,27.63
2022-12-01T10:14:48.168Z,29.17
2022-12-01T10:17:27.342Z,30.15
2022-12-01T10:20:01.905Z,30.15
2022-12-01T10:22:50.580Z,30.77
2022-12-01T10:25:23.546Z,30.88
2022-12-01T10:28:02.851Z,29.35
2022-12-01T10:30:30.998Z,30.48
2022-12-01T10:33:11.129Z,32.05
2022-12-01T10:35:40.223Z,33.50
2022-12-01T10:38:16.613Z,32.22
2022-12-01T10:40:46.703Z,33.50
2022-12-01T10:43:14.603Z,31.27
2022-12-01T10:45:45.515Z,32.88
2022-12-01T10:48:18.548Z,31.45
2022-12-01T10:50:48.414Z,32.70
2022-12-01T10:53:29.224Z,32.13
2022-12-01T10:56:05.988Z,34.90
2022-12-01T10:58:40.266Z,30.98
2022-12-01T11:01:08.354Z,31.13
2022-12-01T11:03:37.499Z,32.25
2022-12-01T11:06:08.012Z,29.63
2022-12-01T11:08:41.616Z,28.98
2022-12-01T11:11:31.084Z,30.75
2022-12-01T11:14:02.816Z,29.88
2022-12-01T11:16:40.746Z,30.85
2022-12-01T11:19:11.213Z,29.52
2022-12-01T11:21:51.015Z,29.40
2022-12-01T11:24:34.674Z,30.60
2022-12-01T11:27:03.990Z,28.60
2022-12-01T11:29:37.006Z,29.30
2022-12-01T11:32:17.960Z,28.90
2022-12-01T11:34:51.033Z,28.85
2022-12-01T11:37:22.133Z,30.17
2022-12-01T11:39:52.391Z,29.58
2022-12-01T11:42:26.821Z,29.65
2022-12-01T11:44:57.953Z,28.63
2022-12-01T11:47:27.548Z,29.30
2022-12-01T11:49:57.701Z,27.05
2022-12-01T11:52:31.939Z,29.70
2022-12-01T11:55:09.681Z,30.45
2022-12-01T11:57:41.997Z,28.23
2022-12-01T12:00:17.860Z,30.02
2022-12-01T12:02:59.986Z,30.63
2022-12-01T12:06:38.958Z,29.52
2022-12-01T12:09:12.380Z,28.52
2022-12-01T12:11:51.176Z,27.45
2022-12-01T12:14:40.406Z,27.17
2022-12-01T12:17:19.390Z,27.92
2022-12-01T12:20:17.499Z,29.27
2022-12-01T12:22:56.141Z,28.02
2022-12-01T12:25:33.598Z,28.85
2022-12-01T12:28:14.997Z,29.33
2022-12-01T12:30:52.294Z,28.20
2022-12-01T12:33:53.960Z,27.67
2022-12-01T12:36:34.830Z,27.27
2022-12-01T12:39:16.538Z,27.35
2022-12-01T12:41:47.011Z,29.27
2022-12-01T12:44:37.318Z,27.20
2022-12-01T12:47:18.050Z,27.55
2022-12-01T12:49:55.224Z,25.67
2022-12-01T12:52:27.619Z,27.77
2022-12-01T12:54:59.863Z,26.63
2022-12-01T12:57:32.676Z,25.10
2022-12-01T13:00:05.035Z,26.10
2022-12-01T13:02:40.784Z,26.25
2022-12-01T13:05:16.081Z,25.38
2022-12-01T13:07:48.991Z,24.60
2022-12-01T13:10:29.646Z,24.40
2022-12-01T13:13:05.413Z,24.10
2022-12-01T13:15:36.530Z,24.88
2022-12-01T13:18:27.484Z,25.38
2022-12-01T13:20:58.204Z,24.83
2022-12-01T13:23:27.076Z,25.15
2022-12-01T13:25:58.947Z,24.92
2022-12-01T13:28:33.946Z,24.35
2022-12-01T13:31:04.357Z,23.23
2022-12-01T13:33:34.893Z,23.70
2022-12-01T13:39:00.394Z,23.35
2022-12-01T13:41:33.042Z,25.73
2022-12-01T13:44:04.738Z,22.48
2022-12-01T13:46:50.305Z,24.23
2022-12-01T13:49:36.963Z,24.20
2022-12-01T13:52:28.470Z,22.50
2022-12-01T13:55:25.124Z,23.80
2022-12-01T13:58:24.031Z,23.15
2022-12-01T14:00:52.255Z,23.38
2022-12-01T14:03:41.271Z,23.70
2022-12-01T14:06:26.162Z,23.80
2022-12-01T14:08:59.064Z,23.60
2022-12-01T14:11:29.368Z,24.38
2022-12-01T14:13:59.872Z,25.23
2022-12-01T14:16:48.194Z,23.48
2022-12-01T14:19:31.271Z,23.13
2022-12-01T14:22:01.971Z,23.80
2022-12-01T14:24:35.249Z,24.25
2022-12-01T14:27:04.219Z,23.58
2022-12-01T14:29:34.769Z,25.10
2022-12-01T14:32:26.641Z,22.95
2022-12-01T14:35:04.351Z,25.95
2022-12-01T14:37:45.021Z,24.10
2022-12-01T14:40:19.896Z,24.70
2022-12-01T14:43:25.175Z,23.83
2022-12-01T14:48:34.701Z,24.70
2022-12-01T14:51:14.720Z,25.50
2022-12-01T14:53:47.678Z,24.23
2022-12-01T14:56:19.235Z,25.13
2022-12-01T14:58:55.647Z,24.83
2022-12-01T15:01:24.357Z,25.27
2022-12-01T15:03:57.826Z,24.05
2022-12-01T15:06:28.055Z,25.77
2022-12-01T15:12:00.213Z,24.92
2022-12-01T15:14:34.317Z,23.60
2022-12-01T15:19:36.261Z,23.33
2022-12-01T15:22:07.664Z,26.20
2022-12-01T15:24:37.003Z,25.08
2022-12-01T15:27:06.124Z,24.95
2022-12-01T15:29:37.425Z,23.70
2022-12-01T15:32:09.476Z,25.08
2022-12-01T15:34:42.176Z,25.33
2022-12-01T15:37:14.350Z,23.55
2022-12-01T15:39:47.954Z,24.15
2022-12-01T15:42:24.339Z,25.35
2022-12-01T15:45:00.573Z,23.38
2022-12-01T15:47:35.830Z,24.38
2022-12-01T15:50:05.035Z,25.95
2022-12-01T15:52:33.624Z,23.25
2022-12-01T15:55:06.846Z,23.33
2022-12-01T15:57:36.080Z,24.83
2022-12-01T16:00:05.380Z,26.45
2022-12-01T16:02:34.642Z,24.67
2022-12-01T16:05:05.947Z,24.85
2022-12-01T16:08:11.607Z,25.38
2022-12-01T16:10:31.626Z,25.60
2022-12-01T16:13:38.594Z,26.15
2022-12-01T16:16:30.134Z,25.13
2022-12-01T16:19:00.822Z,25.55
2022-12-01T16:21:29.718Z,24.75
2022-12-01T16:24:02.597Z,24.27
2022-12-01T16:26:33.975Z,25.70
2022-12-01T16:29:01.855Z,24.23
2022-12-01T16:31:29.863Z,26.00
2022-12-01T16:34:13.905Z,25.73
2022-12-01T16:36:46.784Z,26.30
2022-12-01T16:39:15.435Z,26.48
2022-12-01T16:41:46.801Z,26.27
2022-12-01T16:44:31.129Z,25.73
2022-12-01T16:46:59.063Z,25.40
2022-12-01T16:49:27.108Z,26.33
2022-12-01T16:51:56.935Z,27.67
2022-12-01T16:54:25.509Z,25.02
2022-12-01T16:56:54.911Z,24.88
2022-12-01T16:59:22.813Z,24.33
2022-12-01T17:01:50.712Z,24.63
2022-12-01T17:04:18.980Z,26.20
2022-12-01T17:06:47.051Z,26.27
2022-12-01T17:09:14.920Z,27.08
2022-12-01T17:11:42.849Z,27.00
2022-12-01T17:14:12.506Z,26.05
2022-12-01T17:16:40.410Z,25.55
2022-12-01T17:19:08.276Z,25.08
2022-12-01T17:21:36.110Z,23.90
2022-12-01T17:24:04.420Z,25.02
2022-12-01T17:26:32.294Z,26.23
2022-12-01T17:29:00.277Z,26.92
2022-12-01T17:31:29.605Z,26.58
2022-12-01T17:33:57.519Z,26.77
2022-12-01T17:36:25.412Z,25.75
2022-12-01T17:38:53.326Z,25.13
2022-12-01T17:41:24.742Z,24.75
2022-12-01T17:43:53.307Z,25.00
2022-12-01T17:46:21.301Z,25.20
2022-12-01T17:48:50.820Z,25.55
2022-12-01T17:51:18.766Z,25.52
2022-12-01T17:53:46.671Z,24.27
2022-12-01T17:56:16.653Z,26.35
2022-12-01T17:58:45.055Z,25.83
2022-12-01T18:01:16.000Z,26.33
2022-12-01T18:03:44.419Z,26.02
2022-12-01T18:06:14.411Z,24.77
2022-12-01T18:08:43.302Z,24.85
2022-12-01T18:11:13.976Z,25.27
2022-12-01T18:13:43.817Z,25.73
2022-12-01T18:16:13.505Z,26.50
2022-12-01T18:18:41.467Z,27.00
2022-12-01T18:21:11.261Z,27.98
2022-12-01T18:23:40.858Z,26.35
2022-12-01T18:26:15.394Z,28.42
2022-12-01T18:28:44.000Z,27.02
2022-12-01T18:31:13.637Z,26.85
2022-12-01T18:33:43.662Z,27.20
2022-12-01T18:36:14.386Z,26.20
2022-12-01T18:38:43.763Z,26.63
2022-12-01T18:41:11.717Z,26.80
2022-12-01T18:43:39.574Z,27.45
2022-12-01T18:46:07.739Z,27.45
2022-12-01T18:48:36.524Z,26.33
2022-12-01T18:51:06.001Z,27.90
2022-12-01T18:53:34.717Z,25.63
2022-12-01T18:56:05.108Z,27.70
2022-12-01T18:58:33.737Z,25.50
2022-12-01T19:01:02.333Z,27.58
2022-12-01T19:03:30.759Z,27.00
2022-12-01T19:05:58.782Z,26.27
2022-12-01T19:08:26.780Z,26.40
2022-12-01T19:11:01.744Z,27.20
2022-12-01T19:13:31.773Z,26.58
2022-12-01T19:16:00.469Z,27.55
2022-12-01T19:18:28.416Z,27.70
2022-12-01T19:20:56.332Z,25.60
2022-12-01T19:23:24.199Z,27.40
2022-12-01T19:25:52.166Z,27.83
2022-12-01T19:28:20.050Z,27.00
2022-12-01T19:30:49.344Z,29.83
2022-12-01T19:33:17.501Z,28.33
2022-12-01T19:35:45.442Z,27.45
2022-12-01T19:38:13.522Z,29.48
2022-12-01T19:40:42.128Z,29.15
2022-12-01T19:43:10.102Z,27.10
2022-12-01T19:45:38.813Z,27.65
2022-12-01T19:48:08.246Z,27.73
2022-12-01T19:50:37.002Z,27.48
2022-12-01T19:53:04.978Z,28.98
2022-12-01T19:55:32.871Z,27.95
2022-12-01T19:58:00.759Z,27.52
2022-12-01T20:00:28.599Z,27.75
2022-12-01T20:02:57.705Z,27.88
2022-12-01T20:05:26.950Z,26.85
2022-12-01T20:07:54.878Z,28.35
2022-12-01T20:10:22.826Z,28.60
2022-12-01T20:12:51.105Z,28.00
2022-12-01T20:15:19.055Z,29.65
2022-12-01T20:17:47.631Z,29.02
2022-12-01T20:20:16.369Z,30.75
2022-12-01T20:22:45.629Z,30.38
2022-12-01T20:25:13.476Z,28.90
2022-12-01T20:27:42.487Z,30.33
2022-12-01T20:30:11.901Z,30.10
2022-12-01T20:32:39.827Z,29.50
2022-12-01T20:35:09.828Z,30.15
2022-12-01T20:37:37.808Z,30.27
2022-12-01T20:40:08.509Z,30.00
2022-12-01T20:42:39.604Z,28.52
2022-12-01T20:45:08.277Z,29.33
2022-12-01T20:47:37.084Z,29.38
2022-12-01T20:50:23.228Z,31.52
2022-12-01T20:52:51.370Z,31.95
2022-12-01T20:55:20.579Z,29.63
2022-12-01T20:57:48.442Z,32.00
2022-12-01T21:00:19.535Z,33.10
2022-12-01T21:02:47.875Z,31.92
2022-12-01T21:05:16.059Z,33.05
2022-12-01T21:07:44.079Z,33.53
2022-12-01T21:10:17.017Z,33.90
2022-12-01T21:13:10.738Z,35.63
2022-12-01T21:15:50.046Z,34.35
2022-12-01T21:18:22.746Z,34.58
2022-12-01T21:20:53.992Z,35.30
2022-12-01T21:23:22.778Z,34.00
2022-12-01T21:25:51.262Z,34.72
2022-12-01T21:28:23.491Z,34.70
2022-12-01T21:30:56.610Z,33.10
2022-12-01T21:33:31.675Z,36.57
2022-12-01T21:36:01.676Z,34.40
2022-12-01T21:38:32.555Z,34.08
2022-12-01T21:41:00.443Z,38.00
2022-12-01T21:43:35.238Z,35.20
2022-12-01T21:46:15.169Z,36.30
2022-12-01T21:48:43.862Z,34.35
2022-12-01T21:51:17.342Z,35.70
2022-12-01T21:53:45.731Z,34.63
2022-12-01T21:56:21.117Z,34.42
2022-12-01T21:58:51.068Z,35.83
2022-12-01T22:01:26.188Z,35.72
2022-12-01T22:04:01.682Z,34.38
2022-12-01T22:06:36.388Z,36.22
2022-12-01T22:09:15.286Z,35.72
2022-12-01T22:11:46.001Z,35.35
2022-12-01T22:14:17.870Z,33.95
2022-12-01T22:16:56.198Z,35.05
2022-12-01T22:19:30.498Z,35.80
2022-12-01T22:22:04.101Z,33.78
2022-12-01T22:24:40.383Z,35.00
2022-12-01T22:27:22.293Z,35.47
2022-12-01T22:29:53.723Z,34.20
2022-12-01T22:32:38.619Z,34.78
2022-12-01T22:35:28.646Z,33.72
2022-12-01T22:38:01.441Z,33.67
2022-12-01T22:40:38.015Z,36.08
2022-12-01T22:43:23.551Z,34.10
2022-12-01T22:46:03.890Z,34.85
2022-12-01T22:48:36.625Z,36.28
2022-12-01T22:51:23.296Z,35.55
2022-12-01T22:53:54.629Z,37.67
2022-12-01T22:56:30.224Z,38.20
2022-12-01T22:58:58.192Z,39.78
2022-12-01T23:01:30.008Z,37.13
2022-12-01T23:04:20.429Z,38.65
2022-12-01T23:07:00.717Z,37.58
2022-12-01T23:09:33.778Z,37.13
2022-12-01T23:12:14.853Z,37.67
2022-12-01T23:14:45.364Z,38.10
2022-12-01T23:17:19.755Z,36.58
2022-12-01T23:19:47.998Z,37.17
2022-12-01T23:22:16.745Z,37.30
2022-12-01T23:24:45.094Z,39.38
2022-12-01T23:27:13.689Z,39.78
2022-12-01T23:29:41.548Z,38.00
2022-12-01T23:32:10.896Z,40.88
2022-12-01T23:34:40.183Z,37.50
2022-12-01T23:37:32.586Z,37.83
2022-12-01T23:40:01.294Z,39.20
2022-12-01T23:42:29.265Z,37.28
2022-12-01T23:44:57.203Z,37.67
2022-12-01T23:47:28.228Z,38.22
2022-12-01T23:50:02.025Z,39.20
2022-12-01T23:52:36.670Z,36.75
2022-12-01T23:55:15.693Z,40.28
2022-12-01T23:57:44.049Z,37.67
